createdAt,value
2018-10-05T00:00:46.710Z,0.00
2018-10-05T00:01:46.700Z,0.00
2018-10-05T00:02:46.688Z,0.00
2018-10-05T00:03:46.703Z,0.00
2018-10-05T00:04:46.670Z,0.00
2018-10-05T00:05:46.656Z,0.00
2018-10-05T00:06:46.646Z,0.00
2018-10-05T00:07:46.636Z,0.00
2018-10-05T00:08:46.656Z,0.00
2018-10-05T00:09:46.613Z,0.00
2018-10-05T00:10:46.602Z,0.00
2018-10-05T00:11:46.592Z,0.00
2018-10-05T00:12:46.663Z,0.00
2018-10-05T00:13:46.596Z,0.00
2018-10-05T00:14:46.562Z,0.00
2018-10-05T00:15:46.550Z,0.00
2018-10-05T00:16:46.540Z,0.00
2018-10-05T00:17:46.544Z,0.00
2018-10-05T00:18:46.544Z,0.00
2018-10-05T00:19:46.506Z,0.00
2018-10-05T00:20:46.496Z,0.00
2018-10-05T00:21:46.488Z,0.00
2018-10-05T00:22:46.475Z,0.00
2018-10-05T00:23:46.490Z,0.00
2018-10-05T00:24:46.542Z,0.00
2018-10-05T00:25:46.442Z,0.00
2018-10-05T00:26:46.431Z,0.00
2018-10-05T00:27:46.422Z,0.00
2018-10-05T00:28:46.433Z,0.00
2018-10-05T00:29:46.400Z,0.00
2018-10-05T00:30:46.389Z,0.00
2018-10-05T00:31:46.397Z,0.00
2018-10-05T00:32:46.368Z,0.00
2018-10-05T00:33:46.380Z,0.00
2018-10-05T00:34:46.348Z,0.00
2018-10-05T00:35:46.336Z,0.00
2018-10-05T00:36:46.323Z,0.00
2018-10-05T00:37:46.314Z,0.00
2018-10-05T00:38:46.326Z,0.00
2018-10-05T00:39:46.293Z,0.00
2018-10-05T00:40:46.281Z,0.00
2018-10-05T00:41:46.280Z,0.00
2018-10-05T00:42:46.260Z,0.00
2018-10-05T00:43:46.273Z,0.00
2018-10-05T00:44:46.248Z,0.00
2018-10-05T00:45:46.227Z,0.00
2018-10-05T00:46:46.221Z,0.00
2018-10-05T00:47:46.208Z,0.00
2018-10-05T00:48:46.219Z,0.00
2018-10-05T00:49:46.186Z,0.00
2018-10-05T00:50:46.179Z,0.00
2018-10-05T00:51:46.167Z,0.00
2018-10-05T00:52:46.153Z,0.00
2018-10-05T00:53:46.166Z,0.00
2018-10-05T00:54:46.135Z,0.00
2018-10-05T00:55:46.123Z,0.00
2018-10-05T00:56:46.111Z,0.00
2018-10-05T00:57:46.101Z,0.00
2018-10-05T00:58:46.115Z,0.00
2018-10-05T00:59:46.079Z,0.00
2018-10-05T01:00:46.069Z,0.00
2018-10-05T01:01:46.121Z,0.00
2018-10-05T01:02:46.050Z,0.00
2018-10-05T01:03:46.063Z,0.00
2018-10-05T01:04:46.029Z,0.00
2018-10-05T01:05:46.019Z,0.00
2018-10-05T01:06:46.004Z,0.00
2018-10-05T01:07:45.997Z,0.00
2018-10-05T01:08:46.007Z,0.00
2018-10-05T01:09:45.981Z,0.00
2018-10-05T01:10:45.963Z,0.00
2018-10-05T01:11:45.954Z,0.00
2018-10-05T01:12:45.947Z,0.00
2018-10-05T01:13:45.956Z,0.00
2018-10-05T01:14:45.922Z,0.00
2018-10-05T01:15:45.909Z,0.00
2018-10-05T01:16:45.899Z,0.00
2018-10-05T01:17:45.888Z,0.00
2018-10-05T01:18:45.910Z,0.00
2018-10-05T01:19:45.866Z,0.00
2018-10-05T01:20:45.857Z,0.00
2018-10-05T01:21:45.846Z,0.00
2018-10-05T01:22:45.835Z,0.00
2018-10-05T01:23:45.849Z,0.00
2018-10-05T01:24:45.841Z,0.00
2018-10-05T01:25:45.804Z,0.00
2018-10-05T01:26:45.792Z,0.00
2018-10-05T01:27:45.780Z,0.00
2018-10-05T01:28:45.801Z,0.00
2018-10-05T01:29:45.765Z,0.00
2018-10-05T01:30:45.751Z,0.00
2018-10-05T01:31:45.739Z,0.00
2018-10-05T01:32:45.729Z,0.00
2018-10-05T01:33:45.719Z,0.00
2018-10-05T01:34:45.746Z,0.00
2018-10-05T01:35:45.699Z,0.00
2018-10-05T01:36:45.687Z,0.00
2018-10-05T01:37:45.675Z,0.00
2018-10-05T01:38:45.674Z,0.00
2018-10-05T01:39:45.679Z,0.00
2018-10-05T01:40:45.643Z,0.00
2018-10-05T01:41:45.631Z,0.00
2018-10-05T01:42:45.634Z,0.00
2018-10-05T01:43:45.610Z,0.00
2018-10-05T01:44:45.643Z,0.00
2018-10-05T01:45:45.597Z,0.00
2018-10-05T01:46:45.580Z,0.00
2018-10-05T01:47:45.566Z,0.00
2018-10-05T01:48:45.559Z,0.00
2018-10-05T01:49:45.545Z,0.00
2018-10-05T01:50:45.577Z,0.00
2018-10-05T01:51:45.528Z,0.00
2018-10-05T01:52:45.522Z,0.00
2018-10-05T01:53:45.505Z,0.00
2018-10-05T01:54:45.509Z,0.00
2018-10-05T01:55:45.489Z,0.00
2018-10-05T01:56:45.499Z,0.00
2018-10-05T01:57:45.463Z,0.00
2018-10-05T01:58:45.450Z,0.00
2018-10-05T01:59:45.440Z,0.00
2018-10-05T02:00:45.437Z,0.00
2018-10-05T02:01:45.448Z,0.00
2018-10-05T02:02:45.410Z,0.00
2018-10-05T02:03:45.397Z,0.00
2018-10-05T02:04:45.387Z,0.00
2018-10-05T02:05:45.381Z,0.00
2018-10-05T02:06:45.392Z,0.00
2018-10-05T02:07:45.356Z,0.00
2018-10-05T02:08:45.343Z,0.00
2018-10-05T02:09:45.335Z,0.00
2018-10-05T02:10:45.330Z,0.00
2018-10-05T02:11:45.341Z,0.00
2018-10-05T02:12:45.303Z,0.00
2018-10-05T02:13:45.292Z,0.00
2018-10-05T02:14:45.281Z,0.00
2018-10-05T02:15:45.273Z,0.00
2018-10-05T02:16:45.261Z,0.00
2018-10-05T02:17:45.284Z,0.00
2018-10-05T02:18:45.238Z,0.00
2018-10-05T02:19:45.229Z,0.00
2018-10-05T02:20:45.217Z,0.00
2018-10-05T02:21:45.207Z,0.00
2018-10-05T02:22:45.196Z,0.00
2018-10-05T02:23:45.207Z,0.00
2018-10-05T02:24:45.174Z,0.00
2018-10-05T02:25:45.163Z,0.00
2018-10-05T02:26:45.156Z,0.00
2018-10-05T02:27:45.147Z,0.00
2018-10-05T02:28:45.170Z,0.00
2018-10-05T02:29:45.120Z,0.00
2018-10-05T02:30:45.112Z,0.00
2018-10-05T02:31:45.111Z,0.00
2018-10-05T02:32:45.089Z,0.00
2018-10-05T02:33:45.110Z,0.00
2018-10-05T02:34:45.065Z,0.00
2018-10-05T02:35:45.056Z,0.00
2018-10-05T02:36:45.048Z,0.00
2018-10-05T02:37:45.033Z,0.00
2018-10-05T02:38:45.026Z,0.00
2018-10-05T02:39:45.036Z,0.00
2018-10-05T02:40:45.003Z,0.00
2018-10-05T02:41:45.195Z,0.00
2018-10-05T02:42:44.981Z,0.00
2018-10-05T02:43:44.971Z,0.00
2018-10-05T02:44:44.984Z,0.00
2018-10-05T02:45:44.949Z,0.00
2018-10-05T02:46:44.938Z,0.00
2018-10-05T02:47:44.930Z,0.00
2018-10-05T02:48:44.916Z,0.00
2018-10-05T02:49:44.942Z,0.00
2018-10-05T02:50:44.895Z,0.00
2018-10-05T02:51:44.886Z,0.00
2018-10-05T02:52:44.876Z,0.00
2018-10-05T02:53:44.863Z,0.00
2018-10-05T02:54:44.853Z,0.00
2018-10-05T02:55:44.870Z,0.00
2018-10-05T02:56:44.828Z,0.00
2018-10-05T02:57:44.819Z,0.00
2018-10-05T02:58:44.807Z,0.00
2018-10-05T02:59:44.797Z,0.00
2018-10-05T03:00:44.812Z,0.00
2018-10-05T03:01:44.779Z,0.00
2018-10-05T03:02:44.765Z,0.00
2018-10-05T03:03:44.763Z,0.00
2018-10-05T03:04:44.742Z,0.00
2018-10-05T03:05:44.763Z,0.00
2018-10-05T03:06:44.720Z,0.00
2018-10-05T03:07:44.710Z,0.00
2018-10-05T03:08:44.699Z,0.00
2018-10-05T03:09:44.688Z,0.00
2018-10-05T03:10:44.678Z,0.00
2018-10-05T03:11:44.695Z,0.00
2018-10-05T03:12:44.656Z,0.00
2018-10-05T03:13:44.646Z,0.00
2018-10-05T03:14:44.635Z,0.00
2018-10-05T03:15:44.624Z,0.00
2018-10-05T03:16:44.637Z,0.00
2018-10-05T03:17:44.603Z,0.00
2018-10-05T03:18:44.592Z,0.00
2018-10-05T03:19:44.599Z,0.00
2018-10-05T03:20:44.572Z,0.00
2018-10-05T03:21:44.589Z,0.00
2018-10-05T03:22:44.549Z,0.00
2018-10-05T03:23:44.538Z,0.00
2018-10-05T03:24:44.529Z,0.00
2018-10-05T03:25:44.516Z,0.00
2018-10-05T03:26:44.506Z,0.00
2018-10-05T03:27:44.523Z,0.00
2018-10-05T03:28:44.485Z,0.00
2018-10-05T03:29:44.475Z,0.00
2018-10-05T03:30:44.464Z,0.00
2018-10-05T03:31:44.454Z,0.00
2018-10-05T03:32:44.465Z,0.00
2018-10-05T03:33:44.432Z,0.00
2018-10-05T03:34:44.421Z,0.00
2018-10-05T03:35:44.411Z,0.00
2018-10-05T03:36:44.403Z,0.00
2018-10-05T03:37:44.424Z,0.00
2018-10-05T03:38:44.378Z,0.00
2018-10-05T03:39:44.369Z,0.00
2018-10-05T03:40:44.354Z,0.00
2018-10-05T03:41:44.347Z,0.00
2018-10-05T03:42:44.334Z,0.00
2018-10-05T03:43:44.348Z,0.00
2018-10-05T03:44:44.312Z,0.00
2018-10-05T03:45:44.304Z,0.00
2018-10-05T03:46:44.290Z,0.00
2018-10-05T03:47:44.285Z,0.00
2018-10-05T03:48:44.295Z,0.00
2018-10-05T03:49:44.259Z,0.00
2018-10-05T03:50:44.250Z,0.00
2018-10-05T03:51:44.239Z,0.00
2018-10-05T03:52:44.226Z,0.00
2018-10-05T03:53:44.245Z,0.00
2018-10-05T03:54:44.209Z,0.00
2018-10-05T03:55:44.195Z,0.00
2018-10-05T03:56:44.184Z,0.00
2018-10-05T03:57:44.178Z,0.00
2018-10-05T03:58:44.163Z,0.00
2018-10-05T03:59:44.178Z,0.00
2018-10-05T04:00:44.142Z,0.00
2018-10-05T04:01:44.130Z,0.00
2018-10-05T04:02:44.123Z,0.00
2018-10-05T04:03:44.109Z,0.00
2018-10-05T04:04:44.126Z,0.00
2018-10-05T04:05:44.089Z,0.00
2018-10-05T04:06:44.077Z,0.00
2018-10-05T04:07:44.071Z,0.00
2018-10-05T04:08:44.057Z,0.00
2018-10-05T04:09:44.045Z,0.00
2018-10-05T04:10:44.057Z,0.00
2018-10-05T04:11:44.024Z,0.00
2018-10-05T04:12:44.012Z,0.00
2018-10-05T04:13:44.059Z,0.00
2018-10-05T04:14:43.992Z,0.00
2018-10-05T04:15:44.008Z,0.00
2018-10-05T04:16:43.973Z,0.00
2018-10-05T04:17:43.959Z,0.00
2018-10-05T04:18:43.947Z,0.00
2018-10-05T04:19:43.936Z,0.00
2018-10-05T04:20:43.948Z,0.00
2018-10-05T04:21:43.914Z,0.00
2018-10-05T04:22:43.906Z,0.00
2018-10-05T04:23:43.894Z,0.00
2018-10-05T04:24:43.884Z,0.00
2018-10-05T04:25:43.894Z,0.00
2018-10-05T04:26:43.860Z,0.00
2018-10-05T04:27:43.852Z,0.00
2018-10-05T04:28:43.845Z,0.00
2018-10-05T04:29:43.828Z,0.00
2018-10-05T04:30:43.840Z,0.00
2018-10-05T04:31:43.809Z,0.00
2018-10-05T04:32:43.797Z,0.00
2018-10-05T04:33:43.795Z,0.00
2018-10-05T04:34:43.779Z,0.00
2018-10-05T04:35:43.825Z,0.00
2018-10-05T04:36:43.753Z,0.00
2018-10-05T04:37:43.741Z,0.00
2018-10-05T04:38:43.736Z,0.00
2018-10-05T04:39:43.720Z,0.00
2018-10-05T04:40:43.734Z,0.00
2018-10-05T04:41:43.704Z,0.00
2018-10-05T04:42:43.689Z,0.00
2018-10-05T04:43:43.681Z,0.00
2018-10-05T04:44:43.670Z,0.00
2018-10-05T04:45:43.693Z,0.00
2018-10-05T04:46:43.646Z,0.00
2018-10-05T04:47:43.642Z,0.00
2018-10-05T04:48:43.623Z,0.00
2018-10-05T04:49:43.716Z,0.00
2018-10-05T04:50:43.602Z,0.00
2018-10-05T04:51:43.624Z,0.00
2018-10-05T04:52:43.584Z,0.00
2018-10-05T04:53:43.570Z,0.00
2018-10-05T04:54:43.560Z,0.00
2018-10-05T04:55:43.548Z,0.00
2018-10-05T04:56:43.611Z,0.00
2018-10-05T04:57:43.528Z,0.00
2018-10-05T04:58:43.517Z,0.00
2018-10-05T04:59:43.506Z,0.00
2018-10-05T05:00:43.501Z,0.00
2018-10-05T05:01:43.485Z,0.00
2018-10-05T05:02:43.500Z,0.00
2018-10-05T05:03:43.468Z,0.00
2018-10-05T05:04:43.454Z,0.00
2018-10-05T05:05:43.442Z,0.00
2018-10-05T05:06:43.441Z,4.00
2018-10-05T05:07:43.444Z,4.00
2018-10-05T05:08:43.412Z,0.00
2018-10-05T05:09:43.400Z,4.00
2018-10-05T05:10:43.389Z,4.00
2018-10-05T05:11:43.380Z,4.00
2018-10-05T05:12:43.391Z,4.00
2018-10-05T05:13:43.357Z,4.00
2018-10-05T05:14:43.348Z,8.00
2018-10-05T05:15:43.341Z,8.00
2018-10-05T05:16:43.326Z,12.00
2018-10-05T05:17:43.347Z,16.00
2018-10-05T05:18:43.303Z,16.00
2018-10-05T05:19:43.321Z,20.00
2018-10-05T05:20:43.285Z,24.00
2018-10-05T05:21:43.284Z,28.00
2018-10-05T05:22:43.270Z,32.00
2018-10-05T05:23:43.287Z,40.00
2018-10-05T05:24:43.237Z,44.00
2018-10-05T05:25:43.239Z,52.00
2018-10-05T05:26:43.217Z,60.00
2018-10-05T05:27:43.205Z,64.00
2018-10-05T05:28:43.194Z,76.00
2018-10-05T05:29:43.208Z,88.00
2018-10-05T05:30:43.172Z,96.00
2018-10-05T05:31:43.170Z,112.00
2018-10-05T05:32:43.151Z,124.00
2018-10-05T05:33:43.282Z,140.00
2018-10-05T05:34:43.153Z,152.00
2018-10-05T05:35:43.124Z,172.00
2018-10-05T05:36:43.108Z,184.00
2018-10-05T05:37:43.100Z,208.00
2018-10-05T05:38:43.086Z,224.00
2018-10-05T05:39:43.099Z,244.00
2018-10-05T05:40:43.064Z,268.00
2018-10-05T05:41:43.054Z,292.00
2018-10-05T05:42:43.048Z,312.00
2018-10-05T05:43:43.032Z,336.00
2018-10-05T05:44:43.049Z,360.00
2018-10-05T05:45:43.012Z,388.00
2018-10-05T05:46:43.035Z,412.00
2018-10-05T05:47:42.988Z,440.00
2018-10-05T05:48:42.978Z,464.00
2018-10-05T05:49:42.972Z,496.00
2018-10-05T05:50:42.981Z,520.00
2018-10-05T05:51:42.946Z,548.00
2018-10-05T05:52:42.937Z,576.00
2018-10-05T05:53:42.924Z,604.00
2018-10-05T05:54:42.914Z,628.00
2018-10-05T05:55:42.955Z,660.00
2018-10-05T05:56:42.895Z,688.00
2018-10-05T05:57:42.885Z,716.00
2018-10-05T05:58:42.872Z,744.00
2018-10-05T05:59:42.861Z,772.00
2018-10-05T06:00:42.965Z,796.00
2018-10-05T06:01:42.842Z,828.00
2018-10-05T06:02:42.830Z,852.00
2018-10-05T06:03:42.819Z,880.00
2018-10-05T06:04:42.806Z,904.00
2018-10-05T06:05:42.956Z,932.00
2018-10-05T06:06:42.794Z,960.00
2018-10-05T06:07:42.775Z,988.00
2018-10-05T06:08:42.768Z,1016.00
2018-10-05T06:09:42.755Z,1044.00
2018-10-05T06:10:42.766Z,1076.00
2018-10-05T06:11:42.733Z,1104.00
2018-10-05T06:12:42.721Z,1132.00
2018-10-05T06:13:42.718Z,1160.00
2018-10-05T06:14:42.699Z,1188.00
2018-10-05T06:15:42.715Z,1212.00
2018-10-05T06:16:42.680Z,1240.00
2018-10-05T06:17:42.669Z,1268.00
2018-10-05T06:18:42.658Z,1296.00
2018-10-05T06:19:42.649Z,1316.00
2018-10-05T06:20:42.659Z,1340.00
2018-10-05T06:21:42.785Z,1364.00
2018-10-05T06:22:42.620Z,1392.00
2018-10-05T06:23:42.603Z,1412.00
2018-10-05T06:24:42.592Z,1436.00
2018-10-05T06:25:42.603Z,1456.00
2018-10-05T06:26:42.571Z,1480.00
2018-10-05T06:27:42.558Z,1508.00
2018-10-05T06:28:42.549Z,1520.00
2018-10-05T06:29:42.542Z,1548.00
2018-10-05T06:30:42.669Z,1568.00
2018-10-05T06:31:42.518Z,1588.00
2018-10-05T06:32:42.511Z,1612.00
2018-10-05T06:33:42.495Z,1632.00
2018-10-05T06:34:42.527Z,1656.00
2018-10-05T06:35:42.546Z,1680.00
2018-10-05T06:36:42.465Z,1704.00
2018-10-05T06:37:42.452Z,1720.00
2018-10-05T06:38:42.441Z,1740.00
2018-10-05T06:39:42.433Z,1764.00
2018-10-05T06:40:42.445Z,1784.00
2018-10-05T06:41:42.435Z,1804.00
2018-10-05T06:42:42.401Z,1820.00
2018-10-05T06:43:42.389Z,1848.00
2018-10-05T06:44:42.377Z,1864.00
2018-10-05T06:45:42.413Z,1880.00
2018-10-05T06:46:42.357Z,1892.00
2018-10-05T06:47:42.346Z,1916.00
2018-10-05T06:48:42.335Z,1932.00
2018-10-05T06:49:42.327Z,1944.00
2018-10-05T06:50:42.313Z,1956.00
2018-10-05T06:51:42.325Z,1972.00
2018-10-05T06:52:42.293Z,1992.00
2018-10-05T06:53:42.286Z,2000.00
2018-10-05T06:54:42.275Z,2020.00
2018-10-05T06:55:42.300Z,2040.00
2018-10-05T06:56:42.253Z,2056.00
2018-10-05T06:57:42.238Z,2068.00
2018-10-05T06:58:42.229Z,2072.00
2018-10-05T06:59:42.219Z,2100.00
2018-10-05T07:00:42.209Z,2104.00
2018-10-05T07:01:42.288Z,2116.00
2018-10-05T07:02:42.190Z,2132.00
2018-10-05T07:03:42.175Z,2140.00
2018-10-05T07:04:42.170Z,2148.00
2018-10-05T07:05:42.154Z,2160.00
2018-10-05T07:06:42.174Z,2164.00
2018-10-05T07:07:42.214Z,2172.00
2018-10-05T07:08:42.124Z,2180.00
2018-10-05T07:09:42.113Z,2196.00
2018-10-05T07:10:42.101Z,2196.00
2018-10-05T07:11:42.114Z,2208.00
2018-10-05T07:12:42.082Z,2220.00
2018-10-05T07:13:42.072Z,2232.00
2018-10-05T07:14:42.060Z,2240.00
2018-10-05T07:15:42.052Z,2236.00
2018-10-05T07:16:42.067Z,2256.00
2018-10-05T07:17:42.026Z,2256.00
2018-10-05T07:18:42.018Z,2256.00
2018-10-05T07:19:42.005Z,2276.00
2018-10-05T07:20:41.994Z,2276.00
2018-10-05T07:21:41.984Z,2296.00
2018-10-05T07:22:42.005Z,2284.00
2018-10-05T07:23:41.963Z,2308.00
2018-10-05T07:24:41.951Z,2312.00
2018-10-05T07:25:41.941Z,2316.00
2018-10-05T07:26:41.930Z,2320.00
2018-10-05T07:27:41.920Z,2324.00
2018-10-05T07:28:42.000Z,2336.00
2018-10-05T07:29:41.898Z,2340.00
2018-10-05T07:30:41.893Z,2344.00
2018-10-05T07:31:41.878Z,2360.00
2018-10-05T07:32:41.867Z,2360.00
2018-10-05T07:33:41.880Z,2368.00
2018-10-05T07:34:41.848Z,2376.00
2018-10-05T07:35:41.836Z,2376.00
2018-10-05T07:36:41.851Z,2388.00
2018-10-05T07:37:41.812Z,2396.00
2018-10-05T07:38:41.838Z,2396.00
2018-10-05T07:39:41.790Z,2400.00
2018-10-05T07:40:41.780Z,2408.00
2018-10-05T07:41:41.770Z,2416.00
2018-10-05T07:42:41.760Z,2428.00
2018-10-05T07:43:41.791Z,2432.00
2018-10-05T07:44:41.740Z,2452.00
2018-10-05T07:45:41.725Z,2448.00
2018-10-05T07:46:41.715Z,2452.00
2018-10-05T07:47:41.705Z,2464.00
2018-10-05T07:48:41.696Z,2472.00
2018-10-05T07:49:41.711Z,2480.00
2018-10-05T07:50:41.674Z,2488.00
2018-10-05T07:51:41.697Z,2492.00
2018-10-05T07:52:41.654Z,2508.00
2018-10-05T07:53:41.641Z,2520.00
2018-10-05T07:54:41.631Z,2520.00
2018-10-05T07:55:41.644Z,2532.00
2018-10-05T07:56:41.608Z,2536.00
2018-10-05T07:57:41.771Z,2548.00
2018-10-05T07:58:41.587Z,2556.00
2018-10-05T07:59:41.575Z,2560.00
2018-10-05T08:00:41.593Z,2564.00
2018-10-05T08:01:41.556Z,2568.00
2018-10-05T08:02:41.549Z,2576.00
2018-10-05T08:03:41.534Z,2572.00
2018-10-05T08:04:41.523Z,2576.00
2018-10-05T08:05:41.534Z,2584.00
2018-10-05T08:06:41.503Z,2592.00
2018-10-05T08:07:41.490Z,2592.00
2018-10-05T08:08:41.482Z,2600.00
2018-10-05T08:09:41.556Z,2608.00
2018-10-05T08:10:41.483Z,2612.00
2018-10-05T08:11:41.448Z,2612.00
2018-10-05T08:12:41.442Z,2624.00
2018-10-05T08:13:41.424Z,2616.00
2018-10-05T08:14:41.415Z,2628.00
2018-10-05T08:15:41.427Z,2616.00
2018-10-05T08:16:41.393Z,2624.00
2018-10-05T08:17:41.384Z,2620.00
2018-10-05T08:18:41.371Z,2620.00
2018-10-05T08:19:41.360Z,2616.00
2018-10-05T08:20:41.373Z,2628.00
2018-10-05T08:21:41.456Z,2632.00
2018-10-05T08:22:41.330Z,2640.00
2018-10-05T08:23:41.338Z,2636.00
2018-10-05T08:24:41.308Z,2640.00
2018-10-05T08:25:41.322Z,2640.00
2018-10-05T08:26:41.287Z,2636.00
2018-10-05T08:27:41.319Z,2644.00
2018-10-05T08:28:41.267Z,2652.00
2018-10-05T08:29:41.253Z,2648.00
2018-10-05T08:30:41.268Z,2648.00
2018-10-05T08:31:41.232Z,2660.00
2018-10-05T08:32:41.223Z,2664.00
2018-10-05T08:33:41.213Z,2668.00
2018-10-05T08:34:41.202Z,2672.00
2018-10-05T08:35:41.222Z,2672.00
2018-10-05T08:36:41.179Z,2688.00
2018-10-05T08:37:41.171Z,2688.00
2018-10-05T08:38:41.158Z,2700.00
2018-10-05T08:39:41.232Z,2696.00
2018-10-05T08:40:41.135Z,2700.00
2018-10-05T08:41:41.154Z,2704.00
2018-10-05T08:42:41.116Z,2716.00
2018-10-05T08:43:41.106Z,2728.00
2018-10-05T08:44:41.092Z,2736.00
2018-10-05T08:45:41.122Z,2740.00
2018-10-05T08:46:41.074Z,2748.00
2018-10-05T08:47:41.084Z,2760.00
2018-10-05T08:48:41.048Z,2756.00
2018-10-05T08:49:41.040Z,2768.00
2018-10-05T08:50:41.041Z,2764.00
2018-10-05T08:51:41.063Z,2780.00
2018-10-05T08:52:41.033Z,2776.00
2018-10-05T08:53:40.995Z,2776.00
2018-10-05T08:54:40.984Z,2784.00
2018-10-05T08:55:40.997Z,2784.00
2018-10-05T08:56:40.962Z,2796.00
2018-10-05T08:57:40.982Z,2780.00
2018-10-05T08:58:40.940Z,2800.00
2018-10-05T08:59:40.930Z,2796.00
2018-10-05T09:00:40.919Z,2828.00
2018-10-05T09:01:40.909Z,2808.00
2018-10-05T09:02:40.914Z,2812.00
2018-10-05T09:03:40.910Z,2816.00
2018-10-05T09:04:40.876Z,2824.00
2018-10-05T09:05:40.936Z,2800.00
2018-10-05T09:06:40.852Z,2800.00
2018-10-05T09:07:40.853Z,2792.00
2018-10-05T09:08:40.860Z,2820.00
2018-10-05T09:09:40.823Z,2828.00
2018-10-05T09:10:40.811Z,2836.00
2018-10-05T09:11:40.799Z,2856.00
2018-10-05T09:12:40.790Z,2856.00
2018-10-05T09:13:40.810Z,2884.00
2018-10-05T09:14:40.766Z,2892.00
2018-10-05T09:15:40.756Z,2904.00
2018-10-05T09:16:40.749Z,2920.00
2018-10-05T09:17:40.743Z,2940.00
2018-10-05T09:18:40.747Z,2940.00
2018-10-05T09:19:40.715Z,2936.00
2018-10-05T09:20:40.700Z,2948.00
2018-10-05T09:21:40.690Z,2924.00
2018-10-05T09:22:40.679Z,2952.00
2018-10-05T09:23:40.695Z,2904.00
2018-10-05T09:24:40.658Z,2916.00
2018-10-05T09:25:40.647Z,2936.00
2018-10-05T09:26:40.640Z,2936.00
2018-10-05T09:27:40.629Z,2936.00
2018-10-05T09:28:40.639Z,2940.00
2018-10-05T09:29:40.604Z,2920.00
2018-10-05T09:30:40.708Z,2924.00
2018-10-05T09:31:40.581Z,2908.00
2018-10-05T09:32:40.572Z,2920.00
2018-10-05T09:33:40.588Z,2920.00
2018-10-05T09:34:40.563Z,2940.00
2018-10-05T09:35:40.560Z,2952.00
2018-10-05T09:36:40.530Z,2920.00
2018-10-05T09:37:40.525Z,2952.00
2018-10-05T09:38:40.531Z,2964.00
2018-10-05T09:39:40.503Z,2980.00
2018-10-05T09:40:40.487Z,2972.00
2018-10-05T09:41:40.475Z,2964.00
2018-10-05T09:42:40.468Z,2992.00
2018-10-05T09:43:40.476Z,2988.00
2018-10-05T09:44:40.527Z,3032.00
2018-10-05T09:45:40.431Z,2996.00
2018-10-05T09:46:40.426Z,3016.00
2018-10-05T09:47:40.414Z,3060.00
2018-10-05T09:48:40.426Z,3112.00
2018-10-05T09:49:40.388Z,3144.00
2018-10-05T09:50:40.421Z,3108.00
2018-10-05T09:51:40.534Z,3192.00
2018-10-05T09:52:40.734Z,3232.00
2018-10-05T09:53:40.393Z,3220.00
2018-10-05T09:54:40.335Z,3284.00
2018-10-05T09:55:40.366Z,3308.00
2018-10-05T09:56:40.315Z,3336.00
2018-10-05T09:57:40.314Z,3212.00
2018-10-05T09:58:40.318Z,3276.00
2018-10-05T09:59:40.343Z,3308.00
2018-10-05T10:00:40.271Z,3292.00
2018-10-05T10:01:40.261Z,3376.00
2018-10-05T10:02:40.253Z,3452.00
2018-10-05T10:03:40.263Z,3540.00
2018-10-05T10:04:40.232Z,3532.00
2018-10-05T10:05:40.264Z,3600.00
2018-10-05T10:06:40.205Z,3596.00
2018-10-05T10:07:40.194Z,3592.00
2018-10-05T10:08:40.211Z,3616.00
2018-10-05T10:09:40.174Z,3592.00
2018-10-05T10:10:40.163Z,3596.00
2018-10-05T10:11:40.151Z,3596.00
2018-10-05T10:12:40.145Z,3588.00
2018-10-05T10:13:40.169Z,3572.00
2018-10-05T10:14:40.118Z,3536.00
2018-10-05T10:15:40.108Z,3516.00
2018-10-05T10:16:40.099Z,3592.00
2018-10-05T10:17:40.086Z,3552.00
2018-10-05T10:18:40.101Z,3512.00
2018-10-05T10:19:40.065Z,3460.00
2018-10-05T10:20:40.053Z,3452.00
2018-10-05T10:21:40.043Z,3512.00
2018-10-05T10:22:40.042Z,3536.00
2018-10-05T10:23:40.049Z,3428.00
2018-10-05T10:24:40.013Z,3336.00
2018-10-05T10:25:40.000Z,3384.00
2018-10-05T10:26:39.989Z,3396.00
2018-10-05T10:27:40.044Z,3400.00
2018-10-05T10:28:40.068Z,3448.00
2018-10-05T10:29:39.984Z,3440.00
2018-10-05T10:30:39.946Z,3464.00
2018-10-05T10:31:39.937Z,3608.00
2018-10-05T10:32:39.927Z,3724.00
2018-10-05T10:33:39.927Z,3812.00
2018-10-05T10:34:40.134Z,3912.00
2018-10-05T10:35:39.908Z,3860.00
2018-10-05T10:36:39.935Z,3896.00
2018-10-05T10:37:39.875Z,4088.00
2018-10-05T10:38:39.878Z,4064.00
2018-10-05T10:39:39.882Z,4128.00
2018-10-05T10:40:39.873Z,4232.00
2018-10-05T10:41:39.830Z,4324.00
2018-10-05T10:42:39.879Z,4416.00
2018-10-05T10:43:39.813Z,4420.00
2018-10-05T10:44:39.799Z,4344.00
2018-10-05T10:45:39.824Z,4172.00
2018-10-05T10:46:39.778Z,4316.00
2018-10-05T10:47:39.768Z,4312.00
2018-10-05T10:48:39.756Z,4404.00
2018-10-05T10:49:39.748Z,4284.00
2018-10-05T10:50:39.733Z,4364.00
2018-10-05T10:51:39.747Z,4344.00
2018-10-05T10:52:39.712Z,4348.00
2018-10-05T10:53:39.704Z,4336.00
2018-10-05T10:54:39.690Z,4332.00
2018-10-05T10:55:39.679Z,4268.00
2018-10-05T10:56:39.701Z,4236.00
2018-10-05T10:57:39.658Z,4156.00
2018-10-05T10:58:39.652Z,4040.00
2018-10-05T10:59:39.635Z,3892.00
2018-10-05T11:00:39.669Z,3816.00
2018-10-05T11:01:39.645Z,3780.00
2018-10-05T11:02:39.602Z,3716.00
2018-10-05T11:03:39.593Z,3852.00
2018-10-05T11:04:39.744Z,3740.00
2018-10-05T11:05:39.572Z,3816.00
2018-10-05T11:06:39.594Z,3816.00
2018-10-05T11:07:39.549Z,3916.00
2018-10-05T11:08:39.543Z,3948.00
2018-10-05T11:09:39.525Z,4028.00
2018-10-05T11:10:39.512Z,3988.00
2018-10-05T11:11:39.518Z,3992.00
2018-10-05T11:12:39.533Z,4000.00
2018-10-05T11:13:39.482Z,3948.00
2018-10-05T11:14:39.470Z,3976.00
2018-10-05T11:15:39.458Z,3972.00
2018-10-05T11:16:39.449Z,3908.00
2018-10-05T11:17:39.438Z,3828.00
2018-10-05T11:18:39.456Z,3632.00
2018-10-05T11:19:39.415Z,3496.00
2018-10-05T11:20:39.405Z,3584.00
2018-10-05T11:21:39.393Z,3612.00
2018-10-05T11:22:39.381Z,3628.00
2018-10-05T11:23:39.394Z,3640.00
2018-10-05T11:24:39.359Z,3576.00
2018-10-05T11:25:39.368Z,3624.00
2018-10-05T11:26:39.337Z,3668.00
2018-10-05T11:27:39.329Z,3656.00
2018-10-05T11:28:39.369Z,3760.00
2018-10-05T11:29:39.318Z,3740.00
2018-10-05T11:30:39.294Z,3772.00
2018-10-05T11:31:39.282Z,3780.00
2018-10-05T11:32:39.272Z,3776.00
2018-10-05T11:33:39.265Z,3716.00
2018-10-05T11:34:39.274Z,3736.00
2018-10-05T11:35:39.244Z,3764.00
2018-10-05T11:36:39.232Z,3724.00
2018-10-05T11:37:39.218Z,3692.00
2018-10-05T11:38:39.207Z,3660.00
2018-10-05T11:39:39.218Z,3644.00
2018-10-05T11:40:39.220Z,3592.00
2018-10-05T11:41:39.172Z,3508.00
2018-10-05T11:42:39.163Z,3476.00
2018-10-05T11:43:39.156Z,3492.00
2018-10-05T11:44:39.169Z,3468.00
2018-10-05T11:45:39.132Z,3440.00
2018-10-05T11:46:39.121Z,3488.00
2018-10-05T11:47:39.110Z,3476.00
2018-10-05T11:48:39.105Z,3468.00
2018-10-05T11:49:39.089Z,3452.00
2018-10-05T11:50:39.101Z,3480.00
2018-10-05T11:51:39.070Z,3408.00
2018-10-05T11:52:39.057Z,3404.00
2018-10-05T11:53:39.051Z,3364.00
2018-10-05T11:54:39.061Z,3388.00
2018-10-05T11:55:39.028Z,3384.00
2018-10-05T11:56:39.017Z,3400.00
2018-10-05T11:57:39.003Z,3420.00
2018-10-05T11:58:38.991Z,3372.00
2018-10-05T11:59:39.038Z,3392.00
2018-10-05T12:00:38.975Z,3396.00
2018-10-05T12:01:38.960Z,3396.00
2018-10-05T12:02:39.047Z,3416.00
2018-10-05T12:03:38.939Z,3396.00
2018-10-05T12:04:38.931Z,3392.00
2018-10-05T12:05:38.970Z,3360.00
2018-10-05T12:06:38.915Z,3364.00
2018-10-05T12:07:38.896Z,3344.00
2018-10-05T12:08:38.885Z,3360.00
2018-10-05T12:09:38.875Z,3356.00
2018-10-05T12:10:38.896Z,3344.00
2018-10-05T12:11:38.855Z,3372.00
2018-10-05T12:12:38.850Z,3388.00
2018-10-05T12:13:38.838Z,3592.00
2018-10-05T12:14:38.826Z,4064.00
2018-10-05T12:15:38.838Z,4468.00
2018-10-05T12:16:38.801Z,4948.00
2018-10-05T12:17:38.791Z,18592.00
2018-10-05T12:18:38.779Z,47072.00
2018-10-05T12:19:38.767Z,61440.00
2018-10-05T12:20:38.789Z,61152.00
2018-10-05T12:21:38.747Z,61440.00
2018-10-05T12:22:38.753Z,60832.00
2018-10-05T12:23:38.725Z,59456.00
2018-10-05T12:24:38.714Z,57152.00
2018-10-05T12:25:38.742Z,55840.00
2018-10-05T12:26:38.716Z,56896.00
2018-10-05T12:27:38.682Z,58592.00
2018-10-05T12:28:38.676Z,59296.00
2018-10-05T12:29:38.665Z,58176.00
2018-10-05T12:30:38.685Z,57760.00
2018-10-05T12:31:38.640Z,58432.00
2018-10-05T12:32:38.631Z,57536.00
2018-10-05T12:33:38.620Z,57504.00
2018-10-05T12:34:38.611Z,57280.00
2018-10-05T12:35:38.599Z,57504.00